Time;durP1;ratioP1;P1;durP2;ratioP2;P2;SDS_P1;SDS_P2;PMS_P1;PMS_P2;Temp;Humidity;BMP_temperature;BMP_pressure;BME280_temperature;BME280_humidity;BME280_pressure;Samples;Min_cycle;Max_cycle;Signal;HPM_P1;HPM_P2
2023/06/03 00:00:55;;;;;;;;;;;;;;;22.88;61.61;98516.94;2079941;28;20370;-48
2023/06/03 00:01:57;;;;;;;;;;;;;;;22.87;61.52;98526.94;2083730;28;19935;-47
2023/06/03 00:02:59;;;;;;;;;;;;;;;22.87;61.60;98521.53;2087454;28;20701;-47
2023/06/03 00:04:00;;;;;;;;;;;;;;;22.88;61.35;98531.28;2086271;28;19928;-46
2023/06/03 00:05:01;;;;;;;;;;;;;;;22.87;61.42;98526.94;2087929;28;20049;-48
2023/06/03 00:06:02;;;;;;;;;;;;;;;22.87;61.48;98532.34;2081412;28;19962;-46
2023/06/03 00:07:03;;;;;;;;;;;;;;;22.87;61.59;98526.94;2086555;28;19977;-46
2023/06/03 00:08:05;;;;;;;;;;;;;;;22.87;61.33;98537.75;2085274;28;19936;-47
2023/06/03 00:09:05;;;;;;;;;;;;;;;22.88;61.36;98528.56;2083757;28;20046;-47
2023/06/03 00:10:08;;;;;;;;;;;;;;;22.87;61.50;98537.75;2081365;28;19924;-49
2023/06/03 00:11:08;;;;;;;;;;;;;;;22.86;61.45;98536.09;2081566;28;19968;-45
2023/06/03 00:12:12;;;;;;;;;;;;;;;22.85;61.46;98537.16;2087391;28;19928;-47
2023/06/03 00:13:13;;;;;;;;;;;;;;;22.86;61.50;98541.50;2086337;28;19963;-45
2023/06/03 00:14:14;;;;;;;;;;;;;;;22.85;61.53;98544.44;2087582;28;19924;-47
2023/06/03 00:15:17;;;;;;;;;;;;;;;22.86;61.55;98546.91;2080108;28;20360;-47
2023/06/03 00:16:17;;;;;;;;;;;;;;;22.86;61.67;98540.66;2086518;28;20009;-49
2023/06/03 00:17:26;;;;;;;;;;;;;;;22.86;61.55;98549.59;2086549;28;20366;-48
2023/06/03 00:18:26;;;;;;;;;;;;;;;22.85;61.45;98542.56;2086492;28;19927;-44
2023/06/03 00:19:28;;;;;;;;;;;;;;;22.85;61.64;98539.84;2087363;28;20471;-47
2023/06/03 00:20:29;;;;;;;;;;;;;;;22.85;61.72;98539.84;2088045;28;19993;-45
2023/06/03 00:21:31;;;;;;;;;;;;;;;22.86;61.52;98541.50;2088696;28;19928;-47
2023/06/03 00:22:31;;;;;;;;;;;;;;;22.86;61.76;98536.09;2085471;28;19956;-48
2023/06/03 00:23:33;;;;;;;;;;;;;;;22.86;61.79;98546.91;2083261;28;20031;-46
2023/06/03 00:24:34;;;;;;;;;;;;;;;22.86;61.73;98538.78;2087384;28;19978;-46
2023/06/03 00:25:36;;;;;;;;;;;;;;;22.85;61.55;98541.75;2083115;28;19928;-46
2023/06/03 00:26:36;;;;;;;;;;;;;;;22.84;61.57;98543.59;2085363;28;19967;-46
2023/06/03 00:27:41;;;;;;;;;;;;;;;22.85;61.71;98545.25;2082559;28;19924;-45
2023/06/03 00:28:42;;;;;;;;;;;;;;;22.84;61.47;98549.00;2090046;28;20020;-47
2023/06/03 00:29:43;;;;;;;;;;;;;;;22.83;61.50;98547.38;2085516;28;19943;-49
2023/06/03 00:30:45;;;;;;;;;;;;;;;22.84;61.69;98546.31;2082588;28;20218;-46
2023/06/03 00:31:47;;;;;;;;;;;;;;;22.86;61.69;98540.66;2083395;28;20480;-48
2023/06/03 00:32:47;;;;;;;;;;;;;;;22.84;61.66;98548.19;2086972;28;19977;-47
2023/06/03 00:33:48;;;;;;;;;;;;;;;22.84;61.63;98546.31;2086123;28;19931;-48
2023/06/03 00:34:49;;;;;;;;;;;;;;;22.84;61.45;98543.59;2080853;28;19928;-48
2023/06/03 00:35:50;;;;;;;;;;;;;;;22.83;61.67;98536.56;2088609;28;19924;-46
2023/06/03 00:36:51;;;;;;;;;;;;;;;22.84;61.69;98543.59;2081839;28;19989;-47
2023/06/03 00:37:53;;;;;;;;;;;;;;;22.84;61.67;98542.78;2085475;28;19934;-44
2023/06/03 00:38:53;;;;;;;;;;;;;;;22.85;61.46;98547.97;2085078;28;19927;-45
2023/06/03 00:39:54;;;;;;;;;;;;;;;22.84;61.59;98549.00;2087181;28;19939;-45
2023/06/03 00:40:55;;;;;;;;;;;;;;;22.83;61.55;98544.66;2088980;28;19921;-49
2023/06/03 00:41:57;;;;;;;;;;;;;;;22.83;61.52;98550.06;2084911;28;19982;-48
2023/06/03 00:42:58;;;;;;;;;;;;;;;22.82;61.59;98543.03;2087486;28;20007;-48
2023/06/03 00:43:59;;;;;;;;;;;;;;;22.82;61.65;98551.16;2089685;28;19921;-45
2023/06/03 00:45:00;;;;;;;;;;;;;;;22.84;61.74;98548.19;2078390;28;20526;-47
2023/06/03 00:46:02;;;;;;;;;;;;;;;22.82;61.68;98544.91;2083836;28;19925;-47
2023/06/03 00:47:03;;;;;;;;;;;;;;;22.82;61.64;98545.72;2085072;28;19955;-46
2023/06/03 00:48:05;;;;;;;;;;;;;;;22.83;61.73;98546.56;2084839;28;19932;-47
2023/06/03 00:49:06;;;;;;;;;;;;;;;22.83;61.76;98550.06;2086033;28;19994;-49
2023/06/03 00:50:08;;;;;;;;;;;;;;;22.82;61.59;98550.31;2083686;28;19932;-46
2023/06/03 00:51:09;;;;;;;;;;;;;;;22.80;61.57;98542.44;2082478;28;22961;-47
2023/06/03 00:52:12;;;;;;;;;;;;;;;22.83;61.62;98547.38;2082826;28;19936;-48
2023/06/03 00:53:12;;;;;;;;;;;;;;;22.82;61.53;98543.03;2084518;28;19967;-46
2023/06/03 00:54:14;;;;;;;;;;;;;;;22.82;61.66;98542.22;2083891;28;19936;-46
2023/06/03 00:55:14;;;;;;;;;;;;;;;22.82;61.57;98553.84;2087673;28;20036;-48
2023/06/03 00:56:17;;;;;;;;;;;;;;;22.82;61.50;98550.31;2085024;28;19928;-49
2023/06/03 00:57:19;;;;;;;;;;;;;;;22.82;61.77;98553.84;2076014;28;19943;-47
2023/06/03 00:58:21;;;;;;;;;;;;;;;22.81;61.65;98554.06;2082590;28;20378;-46
2023/06/03 00:59:21;;;;;;;;;;;;;;;22.81;61.61;98551.38;2082272;28;19924;-48
2023/06/03 01:00:23;;;;;;;;;;;;;;;22.81;61.54;98559.47;2086223;28;20647;-45
2023/06/03 01:01:25;;;;;;;;;;;;;;;22.80;61.70;98553.25;2082316;28;19932;-46
2023/06/03 01:02:26;;;;;;;;;;;;;;;22.80;61.64;98552.44;2083268;28;20654;-47
2023/06/03 01:03:27;;;;;;;;;;;;;;;22.79;61.68;98556.16;2087205;28;19921;-45
2023/06/03 01:04:29;;;;;;;;;;;;;;;22.81;61.68;98552.19;2085559;28;19936;-46
2023/06/03 01:05:30;;;;;;;;;;;;;;;22.79;61.62;98554.31;2087421;28;20313;-47
2023/06/03 01:06:34;;;;;;;;;;;;;;;22.79;61.56;98559.72;2084748;28;19924;-44
2023/06/03 01:07:37;;;;;;;;;;;;;;;22.80;61.72;98557.84;2086463;28;19929;-47
2023/06/03 01:08:43;;;;;;;;;;;;;;;22.80;61.51;98558.66;2083219;28;19928;-48
2023/06/03 01:09:53;;;;;;;;;;;;;;;22.78;61.78;98560.75;2090117;28;20142;-47
2023/06/03 01:10:59;;;;;;;;;;;;;;;22.78;61.76;98555.34;2083284;28;19971;-47
2023/06/03 01:12:03;;;;;;;;;;;;;;;22.80;61.75;98565.94;2088823;28;20015;-48
2023/06/03 01:13:13;;;;;;;;;;;;;;;22.80;61.68;98557.84;2085326;28;20406;-48
2023/06/03 01:14:17;;;;;;;;;;;;;;;22.79;61.76;98557.03;2084165;28;19924;-44
2023/06/03 01:15:23;;;;;;;;;;;;;;;22.80;61.46;98552.44;2093134;28;19947;-48
2023/06/03 01:16:25;;;;;;;;;;;;;;;22.80;61.63;98547.03;2086333;28;19954;-47
2023/06/03 01:17:30;;;;;;;;;;;;;;;22.79;61.60;98548.91;2081386;28;19929;-44
2023/06/03 01:18:31;;;;;;;;;;;;;;;22.79;61.70;98550.75;2086554;28;19969;-48
2023/06/03 01:19:36;;;;;;;;;;;;;;;22.78;61.64;98549.13;2093954;28;19989;-46
2023/06/03 01:20:40;;;;;;;;;;;;;;;22.77;61.86;98545.59;2089029;28;20567;-47
2023/06/03 01:21:44;;;;;;;;;;;;;;;22.77;61.62;98537.50;2090689;28;19928;-45
2023/06/03 01:22:49;;;;;;;;;;;;;;;22.77;61.72;98547.50;2087303;28;19920;-47
2023/06/03 01:23:51;;;;;;;;;;;;;;;22.76;61.70;98549.34;2084777;28;20011;-51
2023/06/03 01:25:02;;;;;;;;;;;;;;;22.77;61.66;98548.31;2087090;28;19935;-48
2023/06/03 01:26:04;;;;;;;;;;;;;;;22.77;61.49;98534.78;2088071;28;19967;-50
2023/06/03 01:27:06;;;;;;;;;;;;;;;22.77;61.64;98545.59;2085392;28;20746;-49
2023/06/03 01:28:06;;;;;;;;;;;;;;;22.77;61.55;98542.09;2085085;28;19928;-48
2023/06/03 01:29:08;;;;;;;;;;;;;;;22.76;61.62;98546.63;2086599;28;19925;-47
2023/06/03 01:30:09;;;;;;;;;;;;;;;22.77;61.80;98542.09;2087122;28;20370;-47
2023/06/03 01:31:11;;;;;;;;;;;;;;;22.77;61.74;98542.91;2087572;28;20321;-49
2023/06/03 01:32:13;;;;;;;;;;;;;;;22.77;61.72;98537.50;2081501;28;20012;-46
2023/06/03 01:33:15;;;;;;;;;;;;;;;22.75;61.64;98540.41;2087952;28;19965;-47
2023/06/03 01:34:15;;;;;;;;;;;;;;;22.77;61.82;98548.31;2086474;28;20011;-48
2023/06/03 01:35:17;;;;;;;;;;;;;;;22.75;61.64;98545.81;2088386;28;19920;-46
2023/06/03 01:36:17;;;;;;;;;;;;;;;22.75;61.72;98547.72;2086544;28;19946;-47
2023/06/03 01:37:20;;;;;;;;;;;;;;;22.75;61.64;98539.59;2084863;28;20039;-47
2023/06/03 01:38:21;;;;;;;;;;;;;;;22.76;61.50;98546.63;2086331;28;20500;-51
2023/06/03 01:39:24;;;;;;;;;;;;;;;22.75;61.79;98553.94;2089322;28;19994;-48
2023/06/03 01:40:25;;;;;;;;;;;;;;;22.78;61.72;98549.13;2087858;28;19967;-46
2023/06/03 01:41:26;;;;;;;;;;;;;;;22.77;61.65;98542.09;2087370;28;19924;-48
2023/06/03 01:42:27;;;;;;;;;;;;;;;22.75;61.59;98553.13;2080705;28;20491;-46
2023/06/03 01:43:29;;;;;;;;;;;;;;;22.74;61.86;98551.47;2085608;28;19928;-45
2023/06/03 01:44:29;;;;;;;;;;;;;;;22.75;61.68;98550.41;2086116;28;19966;-48
2023/06/03 01:45:31;;;;;;;;;;;;;;;22.74;61.55;98549.59;2086357;28;20314;-47
2023/06/03 01:46:32;;;;;;;;;;;;;;;22.75;61.56;98545.81;2086242;28;19920;-45
2023/06/03 01:47:34;;;;;;;;;;;;;;;22.75;61.58;98550.41;2086750;28;19970;-48
2023/06/03 01:48:34;;;;;;;;;;;;;;;22.74;61.73;98544.19;2086259;28;20386;-46
2023/06/03 01:49:36;;;;;;;;;;;;;;;22.73;61.73;98549.81;2088694;28;19978;-45
2023/06/03 01:50:39;;;;;;;;;;;;;;;22.73;61.69;98552.53;2086294;28;19924;-47
2023/06/03 01:51:41;;;;;;;;;;;;;;;22.73;61.56;98547.09;2088756;28;19932;-47
2023/06/03 01:52:41;;;;;;;;;;;;;;;22.73;61.75;98547.09;2082641;28;20971;-45
2023/06/03 01:53:43;;;;;;;;;;;;;;;22.73;61.76;98555.22;2086624;28;19928;-46
2023/06/03 01:54:45;;;;;;;;;;;;;;;22.72;61.75;98549.00;2082372;28;19932;-50
2023/06/03 01:55:47;;;;;;;;;;;;;;;22.73;61.76;98541.69;2087581;28;20364;-44
2023/06/03 01:56:47;;;;;;;;;;;;;;;22.73;61.60;98547.09;2084686;28;19928;-49
2023/06/03 01:57:49;;;;;;;;;;;;;;;22.73;61.54;98547.97;2082980;28;19968;-45
2023/06/03 01:58:49;;;;;;;;;;;;;;;22.72;61.75;98540.06;2086357;28;19928;-47
2023/06/03 01:59:52;;;;;;;;;;;;;;;22.72;61.69;98542.78;2088192;28;19924;-47
2023/06/03 02:00:52;;;;;;;;;;;;;;;22.72;61.83;98530.06;2086719;28;19958;-45
2023/06/03 02:01:54;;;;;;;;;;;;;;;22.71;61.66;98533.03;2089101;28;20391;-49
2023/06/03 02:02:54;;;;;;;;;;;;;;;22.70;61.72;98537.59;2079361;28;20516;-47
2023/06/03 02:03:56;;;;;;;;;;;;;;;22.69;61.75;98533.25;2085041;28;19932;-49
2023/06/03 02:04:57;;;;;;;;;;;;;;;22.71;61.67;98533.84;2085324;28;20613;-47
2023/06/03 02:05:58;;;;;;;;;;;;;;;22.72;61.84;98538.19;2089210;28;19928;-48
2023/06/03 02:06:59;;;;;;;;;;;;;;;22.72;61.70;98540.06;2088148;28;20009;-46
2023/06/03 02:08:01;;;;;;;;;;;;;;;22.72;61.69;98537.38;2085733;28;20383;-49
2023/06/03 02:09:01;;;;;;;;;;;;;;;22.72;61.76;98535.47;2082204;28;20421;-47
2023/06/03 02:10:05;;;;;;;;;;;;;;;22.72;61.72;98534.66;2082726;28;19932;-44
2023/06/03 02:11:05;;;;;;;;;;;;;;;22.73;61.74;98533.59;2086070;28;19935;-48
2023/06/03 02:12:07;;;;;;;;;;;;;;;22.70;61.76;98536.75;2088480;28;19939;-49
2023/06/03 02:13:08;;;;;;;;;;;;;;;22.69;61.63;98529.72;2086841;28;20405;-44
2023/06/03 02:14:09;;;;;;;;;;;;;;;22.70;61.63;98534.06;2090221;28;19940;-51
2023/06/03 02:15:10;;;;;;;;;;;;;;;22.71;61.66;98533.03;2084005;28;19924;-47
2023/06/03 02:16:12;;;;;;;;;;;;;;;22.70;61.71;98526.78;2084142;28;19964;-49
2023/06/03 02:17:15;;;;;;;;;;;;;;;22.71;61.85;98527.63;2083894;28;19942;-50
2023/06/03 02:18:17;;;;;;;;;;;;;;;22.70;61.70;98532.19;2083799;28;20039;-47
2023/06/03 02:19:19;;;;;;;;;;;;;;;22.70;61.76;98536.75;2086238;28;20012;-48
2023/06/03 02:20:22;;;;;;;;;;;;;;;22.69;61.70;98529.72;2086837;28;20275;-46
2023/06/03 02:21:22;;;;;;;;;;;;;;;22.69;61.69;98535.94;2089815;28;19966;-45
2023/06/03 02:22:24;;;;;;;;;;;;;;;22.69;61.65;98532.44;2089059;28;20053;-48
2023/06/03 02:23:25;;;;;;;;;;;;;;;22.68;61.67;98533.50;2077832;28;19936;-48
2023/06/03 02:24:28;;;;;;;;;;;;;;;22.68;61.69;98536.19;2081620;28;20405;-47
2023/06/03 02:25:30;;;;;;;;;;;;;;;22.66;61.83;98539.13;2087909;28;19928;-46
2023/06/03 02:26:33;;;;;;;;;;;;;;;22.68;61.66;98541.59;2082434;28;19979;-46
2023/06/03 02:27:33;;;;;;;;;;;;;;;22.68;61.74;98541.59;2086797;28;19975;-45
2023/06/03 02:28:34;;;;;;;;;;;;;;;22.68;61.62;98545.13;2084959;28;19921;-48
2023/06/03 02:29:35;;;;;;;;;;;;;;;22.67;61.72;98539.94;2089145;28;20011;-46
2023/06/03 02:30:37;;;;;;;;;;;;;;;22.67;61.87;98545.34;2082378;28;19924;-47
2023/06/03 02:31:37;;;;;;;;;;;;;;;22.68;61.72;98547.81;2082898;28;20016;-46
2023/06/03 02:32:39;;;;;;;;;;;;;;;22.68;61.86;98550.53;2083368;28;19925;-46
2023/06/03 02:33:39;;;;;;;;;;;;;;;22.68;61.65;98555.94;2086421;28;19975;-46
2023/06/03 02:34:41;;;;;;;;;;;;;;;22.68;61.82;98550.53;2084652;28;20413;-46
2023/06/03 02:35:41;;;;;;;;;;;;;;;22.69;61.80;98556.75;2080781;28;20439;-47
2023/06/03 02:36:43;;;;;;;;;;;;;;;22.68;61.73;98555.13;2086446;28;20344;-49
2023/06/03 02:37:44;;;;;;;;;;;;;;;22.68;61.75;98557.81;2079852;28;21307;-45
2023/06/03 02:38:47;;;;;;;;;;;;;;;22.66;61.82;98549.94;2083570;28;19921;-46
2023/06/03 02:39:47;;;;;;;;;;;;;;;22.67;61.82;98554.28;2082739;28;20581;-46
2023/06/03 02:40:50;;;;;;;;;;;;;;;22.66;61.82;98555.34;2085044;28;19928;-48
2023/06/03 02:41:51;;;;;;;;;;;;;;;22.67;61.63;98554.28;2087872;28;19969;-45
2023/06/03 02:42:52;;;;;;;;;;;;;;;22.66;61.66;98554.53;2083830;28;19920;-47
2023/06/03 02:43:52;;;;;;;;;;;;;;;22.66;61.55;98551.81;2085863;28;20410;-48
2023/06/03 02:44:54;;;;;;;;;;;;;;;22.67;61.80;98556.16;2087239;28;19921;-45
2023/06/03 02:45:54;;;;;;;;;;;;;;;22.68;61.72;98552.41;2086668;28;19948;-48
2023/06/03 02:46:56;;;;;;;;;;;;;;;22.67;61.76;98553.44;2087496;28;20310;-46
2023/06/03 02:47:57;;;;;;;;;;;;;;;22.67;61.67;98550.75;2082911;28;20473;-45
2023/06/03 02:49:04;;;;;;;;;;;;;;;22.68;61.66;98552.41;2085026;28;19925;-47
2023/06/03 02:50:05;;;;;;;;;;;;;;;22.68;61.75;98549.72;2087172;28;19920;-46
2023/06/03 02:51:07;;;;;;;;;;;;;;;22.66;61.72;98549.13;2090421;28;20315;-46
2023/06/03 02:52:07;;;;;;;;;;;;;;;22.66;61.89;98551.81;2086031;28;19952;-46
2023/06/03 02:53:09;;;;;;;;;;;;;;;22.66;61.69;98551.81;2086841;28;19939;-46
2023/06/03 02:54:13;;;;;;;;;;;;;;;22.66;61.74;98555.34;2081124;28;20350;-46
2023/06/03 02:55:16;;;;;;;;;;;;;;;22.67;61.67;98545.34;2084637;28;19931;-48
2023/06/03 02:56:17;;;;;;;;;;;;;;;22.67;61.63;98558.84;2084847;28;20039;-47
2023/06/03 02:57:22;;;;;;;;;;;;;;;22.65;61.69;98555.56;2080964;28;20383;-49
2023/06/03 02:58:22;;;;;;;;;;;;;;;22.65;61.66;98558.25;2081946;28;19921;-47
2023/06/03 02:59:24;;;;;;;;;;;;;;;22.66;61.79;98551.81;2088616;28;19970;-46
2023/06/03 03:00:25;;;;;;;;;;;;;;;22.64;61.61;98556.63;2085899;28;20435;-45
2023/06/03 03:01:27;;;;;;;;;;;;;;;22.64;61.69;98549.31;2083112;28;19969;-47
2023/06/03 03:02:28;;;;;;;;;;;;;;;22.65;61.83;98555.56;2082564;28;19928;-47
2023/06/03 03:03:35;;;;;;;;;;;;;;;22.64;61.64;98551.22;2081367;28;19932;-47
2023/06/03 03:04:37;;;;;;;;;;;;;;;22.64;61.70;98546.63;2085136;28;19978;-49
2023/06/03 03:05:38;;;;;;;;;;;;;;;22.65;61.80;98542.03;2084282;28;19921;-48
2023/06/03 03:06:40;;;;;;;;;;;;;;;22.64;61.91;98543.09;2082043;28;19924;-47
2023/06/03 03:07:43;;;;;;;;;;;;;;;22.65;61.82;98551.00;2085685;28;20357;-49
2023/06/03 03:08:45;;;;;;;;;;;;;;;22.65;61.84;98542.03;2085769;28;19928;-49
2023/06/03 03:09:46;;;;;;;;;;;;;;;22.65;61.84;98547.44;2086648;28;19943;-46
2023/06/03 03:10:48;;;;;;;;;;;;;;;22.65;61.96;98542.03;2084136;28;19920;-45
2023/06/03 03:11:50;;;;;;;;;;;;;;;22.65;61.68;98542.03;2080837;28;19995;-49
2023/06/03 03:12:51;;;;;;;;;;;;;;;22.64;61.91;98537.69;2082272;28;20027;-48
2023/06/03 03:13:51;;;;;;;;;;;;;;;22.63;61.74;98536.06;2084414;28;20009;-46
2023/06/03 03:14:53;;;;;;;;;;;;;;;22.63;61.72;98541.47;2082153;28;19982;-47
2023/06/03 03:15:54;;;;;;;;;;;;;;;22.64;61.79;98543.09;2077834;28;19964;-48
2023/06/03 03:16:55;;;;;;;;;;;;;;;22.63;61.75;98542.28;2085330;28;20485;-47
2023/06/03 03:17:56;;;;;;;;;;;;;;;22.64;61.78;98548.50;2082733;28;19931;-44
2023/06/03 03:18:57;;;;;;;;;;;;;;;22.64;61.72;98540.41;2084076;28;19936;-45
2023/06/03 03:19:58;;;;;;;;;;;;;;;22.63;61.83;98542.28;2079872;28;20409;-45
2023/06/03 03:20:59;;;;;;;;;;;;;;;22.64;61.83;98549.31;2086685;28;19931;-49
2023/06/03 03:22:01;;;;;;;;;;;;;;;22.63;61.80;98546.88;2082390;28;20440;-46
2023/06/03 03:23:03;;;;;;;;;;;;;;;22.61;61.86;98541.69;2087633;28;20386;-46
2023/06/03 03:24:04;;;;;;;;;;;;;;;22.62;61.72;98542.50;2083349;28;19966;-47
2023/06/03 03:25:06;;;;;;;;;;;;;;;22.63;61.78;98546.88;2082323;28;20375;-44
2023/06/03 03:26:07;;;;;;;;;;;;;;;22.62;61.72;98542.50;2086808;28;20003;-48
2023/06/03 03:27:10;;;;;;;;;;;;;;;22.61;61.66;98546.28;2086372;28;19924;-49
2023/06/03 03:28:11;;;;;;;;;;;;;;;22.63;61.72;98547.69;2088279;28;20007;-44
2023/06/03 03:29:12;;;;;;;;;;;;;;;22.62;61.76;98551.47;2086883;28;20397;-49
2023/06/03 03:30:13;;;;;;;;;;;;;;;22.62;61.84;98545.22;2086138;28;20011;-47
2023/06/03 03:31:16;;;;;;;;;;;;;;;22.59;61.86;98543.78;2087045;28;20416;-45
2023/06/03 03:32:17;;;;;;;;;;;;;;;22.62;61.81;98546.06;2087515;28;19936;-47
2023/06/03 03:33:18;;;;;;;;;;;;;;;22.61;61.71;98532.75;2084958;28;20386;-47
2023/06/03 03:34:19;;;;;;;;;;;;;;;22.60;61.74;98547.34;2083580;28;20012;-48
2023/06/03 03:35:21;;;;;;;;;;;;;;;22.61;61.93;98538.16;2086155;28;19923;-47
2023/06/03 03:36:23;;;;;;;;;;;;;;;22.60;61.82;98533.81;2082750;28;20386;-51
2023/06/03 03:37:23;;;;;;;;;;;;;;;22.62;61.73;98540.66;2083196;28;20019;-45
2023/06/03 03:38:25;;;;;;;;;;;;;;;22.61;61.77;98535.47;2088809;28;20405;-49
2023/06/03 03:39:25;;;;;;;;;;;;;;;22.61;61.74;98535.47;2087838;28;20484;-48
2023/06/03 03:40:27;;;;;;;;;;;;;;;22.61;61.73;98538.97;2085600;28;19931;-48
2023/06/03 03:41:27;;;;;;;;;;;;;;;22.61;61.70;98538.97;2085831;28;19967;-44
2023/06/03 03:42:30;;;;;;;;;;;;;;;22.62;61.78;98529.00;2086396;28;20321;-47
2023/06/03 03:43:31;;;;;;;;;;;;;;;22.60;61.71;98531.94;2086260;28;19967;-46
2023/06/03 03:44:33;;;;;;;;;;;;;;;22.61;61.66;98535.47;2087893;28;20598;-50
2023/06/03 03:45:35;;;;;;;;;;;;;;;22.59;61.84;98535.69;2085066;28;20027;-47
2023/06/03 03:46:36;;;;;;;;;;;;;;;22.59;61.93;98537.56;2085937;28;20708;-46
2023/06/03 03:47:36;;;;;;;;;;;;;;;22.60;61.66;98536.53;2088863;28;19928;-49
2023/06/03 03:48:38;;;;;;;;;;;;;;;22.59;61.87;98540.28;2088414;28;19928;-49
2023/06/03 03:49:39;;;;;;;;;;;;;;;22.60;61.80;98536.53;2082698;28;19928;-50
2023/06/03 03:50:45;;;;;;;;;;;;;;;22.59;61.82;98545.69;2087496;28;21481;-51
2023/06/03 03:51:45;;;;;;;;;;;;;;;22.60;61.83;98541.94;2080417;28;20028;-48
2023/06/03 03:52:47;;;;;;;;;;;;;;;22.60;61.56;98541.94;2087595;28;19931;-46
2023/06/03 03:53:48;;;;;;;;;;;;;;;22.61;61.77;98535.47;2089129;28;20015;-47
2023/06/03 03:54:49;;;;;;;;;;;;;;;22.59;61.80;98541.09;2090505;28;19928;-47
2023/06/03 03:55:50;;;;;;;;;;;;;;;22.58;61.81;98536.75;2086436;28;20345;-46
2023/06/03 03:56:55;;;;;;;;;;;;;;;22.58;61.80;98546.75;2088723;28;19977;-46
2023/06/03 03:57:57;;;;;;;;;;;;;;;22.60;61.69;98547.34;2084326;28;19931;-45
2023/06/03 03:58:58;;;;;;;;;;;;;;;22.58;61.86;98544.84;2087262;28;19932;-46
2023/06/03 03:59:59;;;;;;;;;;;;;;;22.58;61.98;98546.75;2088709;28;19971;-51
2023/06/03 04:01:02;;;;;;;;;;;;;;;22.58;61.79;98549.44;2087079;28;20015;-46
2023/06/03 04:02:02;;;;;;;;;;;;;;;22.60;61.81;98544.63;2086219;28;20338;-48
2023/06/03 04:03:04;;;;;;;;;;;;;;;22.57;61.63;98543.22;2084418;28;19935;-47
2023/06/03 04:04:06;;;;;;;;;;;;;;;22.57;61.65;98537.00;2087281;28;19920;-46
2023/06/03 04:05:08;;;;;;;;;;;;;;;22.58;61.71;98541.34;2086082;28;19935;-47
2023/06/03 04:06:10;;;;;;;;;;;;;;;22.57;61.77;98539.69;2087404;28;19962;-45
2023/06/03 04:07:14;;;;;;;;;;;;;;;22.58;61.87;98539.44;2086068;28;19967;-47
2023/06/03 04:08:35;;;;;;;;;;;;;;;22.58;61.66;98538.63;2085466;28;19929;-49
2023/06/03 04:09:37;;;;;;;;;;;;;;;22.57;61.68;98542.41;2087641;28;20030;-48
2023/06/03 04:10:38;;;;;;;;;;;;;;;22.56;61.84;98544.25;2086430;28;20023;-45
2023/06/03 04:11:40;;;;;;;;;;;;;;;22.56;61.84;98551.53;2085821;28;19921;-47
2023/06/03 04:12:40;;;;;;;;;;;;;;;22.56;61.81;98541.56;2081712;28;19928;-45
2023/06/03 04:13:43;;;;;;;;;;;;;;;22.55;61.79;98539.91;2084383;28;20524;-49
2023/06/03 04:14:45;;;;;;;;;;;;;;;22.56;61.81;98540.72;2085566;28;19966;-44
2023/06/03 04:15:48;;;;;;;;;;;;;;;22.57;61.62;98545.09;2088316;28;19966;-47
2023/06/03 04:16:53;;;;;;;;;;;;;;;22.57;61.70;98542.41;2083797;28;21339;-45
2023/06/03 04:17:55;;;;;;;;;;;;;;;22.56;61.83;98546.97;2085652;28;19925;-48
2023/06/03 04:18:55;;;;;;;;;;;;;;;22.57;61.75;98548.63;2087473;28;19987;-47
2023/06/03 04:19:58;;;;;;;;;;;;;;;22.58;61.69;98549.44;2084389;28;20465;-49
2023/06/03 04:20:59;;;;;;;;;;;;;;;22.57;61.62;98542.41;2089680;28;19935;-44
2023/06/03 04:22:01;;;;;;;;;;;;;;;22.55;61.76;98542.63;2089212;28;19953;-47
2023/06/03 04:23:03;;;;;;;;;;;;;;;22.56;61.66;98555.06;2087999;28;20015;-44
2023/06/03 04:24:05;;;;;;;;;;;;;;;22.55;61.78;98550.72;2087369;28;19920;-45
2023/06/03 04:25:08;;;;;;;;;;;;;;;22.55;61.77;98544.50;2089641;28;20471;-50
2023/06/03 04:26:09;;;;;;;;;;;;;;;22.55;61.80;98549.91;2085351;28;19931;-44
2023/06/03 04:27:10;;;;;;;;;;;;;;;22.55;61.71;98544.50;2083567;28;19927;-50
2023/06/03 04:28:11;;;;;;;;;;;;;;;22.55;61.94;98544.50;2087246;28;19963;-49
2023/06/03 04:29:14;;;;;;;;;;;;;;;22.56;61.77;98560.47;2085950;28;19924;-46
2023/06/03 04:30:14;;;;;;;;;;;;;;;22.52;61.75;98549.31;2088487;28;20314;-50
2023/06/03 04:31:16;;;;;;;;;;;;;;;22.56;61.70;98556.94;2081435;28;19929;-49
2023/06/03 04:32:16;;;;;;;;;;;;;;;22.55;61.68;98549.91;2083029;28;19925;-49
2023/06/03 04:33:18;;;;;;;;;;;;;;;22.55;61.92;98548.03;2087153;28;19924;-48
2023/06/03 04:35:38;;;;;;;;;;;;;;;22.53;61.90;98553.66;2080617;28;19972;-48
2023/06/03 04:36:39;;;;;;;;;;;;;;;22.55;61.85;98549.91;2082521;28;20009;-49
2023/06/03 04:37:40;;;;;;;;;;;;;;;22.52;61.80;98554.72;2080570;28;19924;-47
2023/06/03 04:38:41;;;;;;;;;;;;;;;22.54;61.76;98551.78;2088549;28;19977;-47
2023/06/03 04:39:42;;;;;;;;;;;;;;;22.55;61.78;98552.63;2086193;28;20921;-45
2023/06/03 04:40:46;;;;;;;;;;;;;;;22.53;61.78;98558.25;2088414;28;19966;-48
2023/06/03 04:41:47;;;;;;;;;;;;;;;22.51;61.77;98553.06;2082250;28;19933;-44
2023/06/03 04:42:49;;;;;;;;;;;;;;;22.53;61.75;98552.84;2085742;28;20498;-47
2023/06/03 04:43:52;;;;;;;;;;;;;;;22.55;61.72;98555.31;2082927;28;20412;-47
2023/06/03 04:44:58;;;;;;;;;;;;;;;22.51;61.70;98558.47;2084377;28;19931;-49
2023/06/03 04:46:00;;;;;;;;;;;;;;;22.51;61.79;98558.47;2087046;28;19928;-46
2023/06/03 04:47:00;;;;;;;;;;;;;;;22.50;61.70;98559.53;2086438;28;19920;-46
2023/06/03 04:48:02;;;;;;;;;;;;;;;22.51;61.79;98561.19;2087082;28;19926;-47
2023/06/03 04:49:02;;;;;;;;;;;;;;;22.50;61.73;98558.69;2086666;28;20018;-44
2023/06/03 04:50:04;;;;;;;;;;;;;;;22.51;61.71;98555.78;2088779;28;20556;-48
2023/06/03 04:51:07;;;;;;;;;;;;;;;22.50;61.90;98561.41;2089371;28;19936;-44
2023/06/03 04:52:10;;;;;;;;;;;;;;;22.50;61.74;98570.34;2084488;28;19924;-44
2023/06/03 04:53:11;;;;;;;;;;;;;;;22.52;61.86;98567.41;2085812;28;20014;-48
2023/06/03 04:54:13;;;;;;;;;;;;;;;22.51;61.70;98565.75;2086036;28;19928;-46
2023/06/03 04:55:13;;;;;;;;;;;;;;;22.50;61.84;98559.53;2086946;28;19967;-49
2023/06/03 04:56:16;;;;;;;;;;;;;;;22.50;61.86;98559.53;2084504;28;19928;-45
2023/06/03 04:57:17;;;;;;;;;;;;;;;22.51;61.69;98566.59;2081182;28;19921;-46
2023/06/03 04:58:18;;;;;;;;;;;;;;;22.51;61.69;98561.19;2082545;28;19928;-49
2023/06/03 04:59:19;;;;;;;;;;;;;;;22.51;61.72;98560.34;2081805;28;19920;-47
2023/06/03 05:00:22;;;;;;;;;;;;;;;22.51;61.83;98560.34;2088324;28;19970;-46
2023/06/03 05:01:23;;;;;;;;;;;;;;;22.54;61.64;98557.19;2085325;28;20468;-46
2023/06/03 05:02:29;;;;;;;;;;;;;;;22.51;61.61;98561.19;2090009;28;19932;-45
2023/06/03 05:03:30;;;;;;;;;;;;;;;22.50;61.83;98559.53;2084773;28;19963;-47
2023/06/03 05:04:31;;;;;;;;;;;;;;;22.52;61.93;98560.13;2087151;28;19927;-45
2023/06/03 05:05:32;;;;;;;;;;;;;;;22.52;61.69;98551.19;2086747;28;20556;-47
2023/06/03 05:06:33;;;;;;;;;;;;;;;22.52;61.71;98554.72;2088861;28;19924;-45
2023/06/03 05:07:35;;;;;;;;;;;;;;;22.52;61.86;98556.59;2085147;28;20436;-46
2023/06/03 05:08:38;;;;;;;;;;;;;;;22.50;61.76;98564.94;2087620;28;19931;-48
2023/06/03 05:09:39;;;;;;;;;;;;;;;22.51;61.90;98555.78;2081350;28;20415;-46
2023/06/03 05:10:41;;;;;;;;;;;;;;;22.52;61.66;98557.41;2078669;28;19929;-46
2023/06/03 05:11:41;;;;;;;;;;;;;;;22.51;61.73;98561.19;2076552;28;19924;-45
2023/06/03 05:12:43;;;;;;;;;;;;;;;22.51;61.64;98563.03;2078950;28;19939;-47
2023/06/03 05:13:45;;;;;;;;;;;;;;;22.51;61.71;98563.03;2083632;28;20801;-47
2023/06/03 05:14:46;;;;;;;;;;;;;;;22.49;61.76;98557.88;2082866;28;20000;-46
2023/06/03 05:15:49;;;;;;;;;;;;;;;22.51;61.79;98565.75;2086230;28;19928;-45
2023/06/03 05:16:49;;;;;;;;;;;;;;;22.48;61.74;98560.81;2081813;28;19949;-47
2023/06/03 05:17:51;;;;;;;;;;;;;;;22.48;61.81;98567.06;2085325;28;19932;-48
2023/06/03 05:18:52;;;;;;;;;;;;;;;22.48;61.69;98561.66;2085538;28;20027;-49
2023/06/03 05:19:53;;;;;;;;;;;;;;;22.49;61.84;98562.47;2085186;28;19981;-46
2023/06/03 05:20:54;;;;;;;;;;;;;;;22.49;61.78;98562.47;2083671;28;20486;-46
2023/06/03 05:21:56;;;;;;;;;;;;;;;22.48;61.77;98560.81;2084604;28;19928;-46
2023/06/03 05:22:56;;;;;;;;;;;;;;;22.49;61.72;98566.00;2084335;28;19935;-46
2023/06/03 05:23:58;;;;;;;;;;;;;;;22.46;61.80;98558.34;2087539;28;19935;-46